Time;durP1;ratioP1;P1;durP2;ratioP2;P2;SDS_P1;SDS_P2;PMS_P1;PMS_P2;Temp;Humidity;BMP_temperature;BMP_pressure;BME280_temperature;BME280_humidity;BME280_pressure;Samples;Min_cycle;Max_cycle;Signal;HPM_P1;HPM_P2
2023/03/11 00:00:35;;;;;;;;;7.00;6.00;;;;;20.55;57.30;97992.27;110054;1250;20809;-38
2023/03/11 00:03:23;;;;;;;;;6.00;6.00;;;;;20.53;57.35;97987.58;110046;1266;22087;-39
2023/03/11 00:05:51;;;;;;;;;6.50;6.50;;;;;20.55;57.24;97984.98;110061;1254;21474;-39
2023/03/11 00:08:18;;;;;;;;;7.00;5.50;;;;;20.54;57.29;97983.88;110058;1250;22133;-39
2023/03/11 00:10:46;;;;;;;;;8.00;6.50;;;;;20.54;57.35;97982.63;110036;1266;19537;-39
2023/03/11 00:13:13;;;;;;;;;4.00;4.00;;;;;20.54;57.21;97977.30;110037;1266;19974;-39
2023/03/11 00:15:41;;;;;;;;;6.00;6.00;;;;;20.53;57.30;97975.06;110021;1266;19549;-38
2023/03/11 00:18:08;;;;;;;;;5.00;5.00;;;;;20.53;57.05;97972.22;110045;1250;19554;-39
2023/03/11 00:20:36;;;;;;;;;7.00;6.00;;;;;20.53;57.18;97970.80;110028;1266;22851;-39
2023/03/11 00:23:03;;;;;;;;;9.00;8.00;;;;;20.53;57.06;97971.30;110045;1266;19393;-39
2023/03/11 00:25:30;;;;;;;;;7.50;6.00;;;;;20.53;57.22;97965.64;110002;1266;19816;-39
2023/03/11 00:27:58;;;;;;;;;8.00;6.00;;;;;20.54;56.96;97963.41;110045;1266;19994;-39
2023/03/11 00:30:25;;;;;;;;;4.00;4.00;;;;;20.53;57.12;97958.29;110024;1254;20800;-39
2023/03/11 00:32:53;;;;;;;;;6.50;6.50;;;;;20.53;57.19;97963.89;110033;1253;19861;-38
2023/03/11 00:35:20;;;;;;;;;4.00;4.00;;;;;20.52;56.92;97961.43;110052;1266;19907;-39
2023/03/11 00:37:48;;;;;;;;;5.00;5.00;;;;;20.52;56.96;97959.52;110038;1252;21051;-39
2023/03/11 00:40:15;;;;;;;;;6.00;6.00;;;;;20.52;57.16;97950.27;110038;1259;19585;-39
2023/03/11 00:42:43;;;;;;;;;7.00;7.00;;;;;20.53;56.95;97951.21;109923;1250;20115;-38
2023/03/11 00:45:10;;;;;;;;;4.00;4.00;;;;;20.53;56.97;97954.52;110002;1266;20754;-38
2023/03/11 00:47:38;;;;;;;;;7.00;6.33;;;;;20.52;57.12;97962.36;109975;1266;18531;-38
2023/03/11 00:50:05;;;;;;;;;7.00;6.00;;;;;20.52;56.85;97960.11;110094;1250;18600;-39
2023/03/11 00:52:32;;;;;;;;;7.00;6.50;;;;;20.52;56.94;97960.23;110080;1253;22361;-39
2023/03/11 00:55:00;;;;;;;;;6.00;6.00;;;;;20.52;57.09;97961.86;110031;1260;18559;-38
2023/03/11 00:57:28;;;;;;;;;6.00;4.00;;;;;20.50;56.75;97961.23;110039;1266;20266;-38
2023/03/11 00:59:56;;;;;;;;;6.00;6.00;;;;;20.51;56.85;97956.98;110079;1266;19377;-38
2023/03/11 01:02:23;;;;;;;;;6.00;6.00;;;;;20.51;56.72;97951.21;110049;1266;18549;-38
2023/03/11 01:04:50;;;;;;;;;6.00;6.00;;;;;20.50;56.89;97951.75;109985;1266;19963;-39
2023/03/11 01:07:18;;;;;;;;;7.00;7.00;;;;;20.50;56.96;97943.58;109980;1254;20820;-38
2023/03/11 01:09:45;;;;;;;;;6.00;4.00;;;;;20.49;56.85;97944.88;110081;1254;19630;-38
2023/03/11 01:12:13;;;;;;;;;9.00;6.00;;;;;20.50;56.81;97939.39;110089;1266;18643;-38
2023/03/11 01:14:40;;;;;;;;;4.00;4.00;;;;;20.49;56.89;97936.34;110043;1258;23314;-38
2023/03/11 01:17:08;;;;;;;;;4.00;4.00;;;;;20.50;56.94;97941.89;110033;1266;19576;-39
2023/03/11 01:19:35;;;;;;;;;6.00;5.00;;;;;20.50;56.81;97947.71;110045;1266;20148;-39
2023/03/11 01:22:03;;;;;;;;;6.00;6.00;;;;;20.49;56.68;97944.92;110067;1266;20597;-38
2023/03/11 01:24:30;;;;;;;;;6.00;6.00;;;;;20.49;56.96;97936.92;110050;1253;21016;-39
2023/03/11 01:26:57;;;;;;;;;4.00;4.00;;;;;20.49;56.84;97935.84;110014;1266;19986;-39
2023/03/11 01:29:25;;;;;;;;;5.00;5.00;;;;;20.49;56.85;97936.05;110019;1266;19727;-40
2023/03/11 01:31:52;;;;;;;;;4.00;4.00;;;;;20.49;56.79;97940.63;110038;1254;19743;-39
2023/03/11 01:34:20;;;;;;;;;5.00;5.00;;;;;20.48;56.59;97939.04;110035;1254;20112;-39
2023/03/11 01:36:47;;;;;;;;;7.00;6.00;;;;;20.49;56.63;97942.04;110060;1250;19354;-39
2023/03/11 01:39:14;;;;;;;;;7.00;6.00;;;;;20.49;56.72;97942.33;110020;1266;19566;-39
2023/03/11 01:41:42;;;;;;;;;6.00;4.00;;;;;20.50;56.70;97947.88;109994;1266;18614;-39
2023/03/11 01:44:09;;;;;;;;;5.00;5.00;;;;;20.49;56.59;97942.66;110013;1266;21785;-41
2023/03/11 01:46:37;;;;;;;;;4.00;4.00;;;;;20.48;56.61;97939.58;110051;1266;22107;-38
2023/03/11 01:49:04;;;;;;;;;6.00;6.00;;;;;20.50;56.57;97939.01;110049;1250;19868;-39
2023/03/11 01:51:32;;;;;;;;;4.00;4.00;;;;;20.49;56.58;97942.48;109978;1254;20740;-39
2023/03/11 01:53:59;;;;;;;;;6.00;4.00;;;;;20.49;56.44;97944.16;109904;1266;23105;-40
2023/03/11 01:56:26;;;;;;;;;4.00;4.00;;;;;20.49;56.68;97941.78;109917;1266;19105;-38
2023/03/11 01:58:54;;;;;;;;;4.00;4.00;;;;;20.49;56.48;97943.73;109999;1266;20555;-39
2023/03/11 02:01:21;;;;;;;;;6.00;6.00;;;;;20.49;56.55;97946.13;110056;1254;19664;-39
2023/03/11 02:03:49;;;;;;;;;4.00;4.00;;;;;20.48;56.64;97943.83;109972;1266;19951;-38
2023/03/11 02:06:17;;;;;;;;;6.00;4.00;;;;;20.48;56.46;97944.16;110054;1259;19424;-38
2023/03/11 02:08:44;;;;;;;;;7.00;6.00;;;;;20.49;56.63;97946.07;110012;1266;19584;-38
2023/03/11 02:11:12;;;;;;;;;4.00;4.00;;;;;20.48;56.53;97946.42;109957;1266;19974;-38
2023/03/11 02:13:39;;;;;;;;;3.00;3.00;;;;;20.47;56.47;97945.77;109874;1266;19337;-38
2023/03/11 02:16:06;;;;;;;;;6.00;4.00;;;;;20.48;56.52;97946.16;109930;1266;19803;-38
2023/03/11 02:18:34;;;;;;;;;4.00;4.00;;;;;20.47;56.53;97942.93;109915;1266;23560;-38
2023/03/11 02:21:01;;;;;;;;;6.00;4.00;;;;;20.47;56.56;97945.55;110000;1250;19391;-38
2023/03/11 02:23:29;;;;;;;;;6.00;4.00;;;;;20.47;56.47;97949.25;110017;1250;22219;-39
2023/03/11 02:25:56;;;;;;;;;5.00;5.00;;;;;20.47;56.54;97954.64;110026;1266;21182;-39
2023/03/11 02:28:24;;;;;;;;;4.00;4.00;;;;;20.47;56.48;97955.98;110045;1266;19404;-40
2023/03/11 02:30:51;;;;;;;;;5.00;5.00;;;;;20.47;56.17;97959.75;110025;1266;22019;-39
2023/03/11 02:33:18;;;;;;;;;6.00;5.00;;;;;20.47;56.47;97956.64;109971;1266;18599;-40
2023/03/11 02:35:46;;;;;;;;;4.00;4.00;;;;;20.46;56.28;97959.35;109882;1266;20638;-37
2023/03/11 02:38:13;;;;;;;;;4.00;4.00;;;;;20.46;56.54;97965.34;110010;1259;22712;-40
2023/03/11 02:40:41;;;;;;;;;3.00;3.00;;;;;20.46;56.30;97965.88;110067;1266;20008;-38
2023/03/11 02:43:08;;;;;;;;;7.00;7.00;;;;;20.46;56.25;97966.48;110057;1266;19495;-42
2023/03/11 02:45:35;;;;;;;;;4.00;3.50;;;;;20.46;56.17;97969.31;110031;1266;19706;-38
2023/03/11 02:48:03;;;;;;;;;4.00;4.00;;;;;20.46;56.19;97965.71;110041;1253;21246;-39
2023/03/11 02:50:30;;;;;;;;;4.00;4.00;;;;;20.46;56.38;97967.31;110010;1250;19765;-37
2023/03/11 02:52:58;;;;;;;;;4.00;4.00;;;;;20.45;56.53;97962.41;110025;1266;18881;-38
2023/03/11 02:55:25;;;;;;;;;4.00;4.00;;;;;20.47;56.26;97963.61;109906;1253;20088;-38
2023/03/11 02:57:53;;;;;;;;;4.00;4.00;;;;;20.46;56.17;97963.58;110040;1266;20727;-38
2023/03/11 03:00:21;;;;;;;;;6.00;4.00;;;;;20.46;56.13;97967.21;110018;1266;19570;-38
2023/03/11 03:02:51;;;;;;;;;4.00;4.00;;;;;20.45;56.46;97973.13;110086;1266;19882;-40
2023/03/11 03:05:19;;;;;;;;;3.00;3.00;;;;;20.45;56.24;97979.48;110045;1251;21909;-39
2023/03/11 03:07:46;;;;;;;;;6.00;4.67;;;;;20.46;56.18;97985.89;110021;1266;22992;-39
2023/03/11 03:10:14;;;;;;;;;4.00;4.00;;;;;20.46;56.17;97985.17;110048;1250;23124;-39
2023/03/11 03:12:41;;;;;;;;;4.00;4.00;;;;;20.45;56.20;97984.51;110028;1253;21023;-37
2023/03/11 03:15:09;;;;;;;;;4.00;4.00;;;;;20.45;56.18;97981.78;110024;1250;20936;-40
2023/03/11 03:17:36;;;;;;;;;4.00;4.00;;;;;20.46;56.18;97983.38;110050;1266;20007;-37
2023/03/11 03:20:08;;;;;;;;;4.00;4.00;;;;;20.45;56.26;97984.75;110047;1266;19734;-38
2023/03/11 03:22:35;;;;;;;;;4.00;4.00;;;;;20.46;56.13;97984.41;110038;1266;22793;-37
2023/03/11 03:25:03;;;;;;;;;4.00;4.00;;;;;20.45;56.14;97987.65;110005;1260;22312;-39
2023/03/11 03:27:30;;;;;;;;;4.00;4.00;;;;;20.45;56.13;97992.75;109990;1250;20792;-38
2023/03/11 03:29:58;;;;;;;;;4.00;4.00;;;;;20.44;55.97;97994.05;109982;1266;18518;-38
2023/03/11 03:32:25;;;;;;;;;3.00;3.00;;;;;20.44;56.27;97997.73;109999;1266;21682;-38
2023/03/11 03:34:57;;;;;;;;;3.00;3.00;;;;;20.45;56.13;98000.04;109985;1260;22700;-38
2023/03/11 03:37:25;;;;;;;;;6.00;6.00;;;;;20.44;56.10;98003.02;110063;1266;20987;-38
2023/03/11 03:39:52;;;;;;;;;3.00;3.00;;;;;20.44;56.07;98006.80;110041;1250;20074;-38
2023/03/11 03:42:20;;;;;;;;;3.00;3.00;;;;;20.44;56.16;98014.27;110072;1266;19719;-38
2023/03/11 03:44:47;;;;;;;;;3.00;3.00;;;;;20.43;55.96;98022.86;110031;1251;19645;-39
2023/03/11 03:47:15;;;;;;;;;4.00;4.00;;;;;20.44;55.98;98027.49;110037;1266;19953;-40
2023/03/11 03:49:42;;;;;;;;;6.00;4.00;;;;;20.44;56.10;98027.92;110036;1266;21778;-39
2023/03/11 03:52:10;;;;;;;;;4.00;3.00;;;;;20.44;55.94;98033.11;110024;1254;19749;-40
2023/03/11 03:54:37;;;;;;;;;3.00;3.00;;;;;20.43;55.89;98032.66;110015;1266;20006;-40
2023/03/11 03:57:05;;;;;;;;;4.00;3.00;;;;;20.44;55.98;98036.02;110030;1250;22794;-41
2023/03/11 03:59:32;;;;;;;;;6.00;6.00;;;;;20.43;55.92;98039.78;110012;1266;20086;-39
2023/03/11 04:02:00;;;;;;;;;4.00;4.00;;;;;20.43;55.98;98043.03;109997;1266;20055;-39
2023/03/11 04:04:27;;;;;;;;;3.00;3.00;;;;;20.44;55.90;98050.17;109864;1250;20827;-38
2023/03/11 04:06:54;;;;;;;;;4.00;4.00;;;;;20.43;55.98;98046.63;109900;1253;19702;-38
2023/03/11 04:09:22;;;;;;;;;4.00;4.00;;;;;20.43;55.89;98045.38;110056;1266;18847;-38
2023/03/11 04:11:49;;;;;;;;;4.00;4.00;;;;;20.43;55.85;98047.18;110068;1253;20780;-40
2023/03/11 04:14:17;;;;;;;;;3.00;3.00;;;;;20.42;55.66;98043.73;110026;1266;18294;-38
2023/03/11 04:16:44;;;;;;;;;3.00;3.00;;;;;20.42;55.80;98046.00;109951;1266;19898;-37
2023/03/11 04:19:12;;;;;;;;;3.00;3.00;;;;;20.43;55.85;98048.20;110011;1254;20727;-38
2023/03/11 04:21:39;;;;;;;;;3.00;3.00;;;;;20.42;55.90;98046.61;110043;1250;18674;-38
2023/03/11 04:24:07;;;;;;;;;6.00;6.00;;;;;20.42;55.82;98046.45;110058;1253;20233;-38
2023/03/11 04:26:34;;;;;;;;;3.50;3.00;;;;;20.42;55.92;98049.17;110009;1266;19919;-38
2023/03/11 04:29:02;;;;;;;;;3.00;3.00;;;;;20.43;55.65;98052.38;110038;1266;22197;-39
2023/03/11 04:31:29;;;;;;;;;3.00;3.00;;;;;20.43;55.63;98051.63;110065;1266;18600;-39
2023/03/11 04:33:56;;;;;;;;;4.00;3.00;;;;;20.42;55.65;98047.09;109966;1253;22776;-38
2023/03/11 04:36:24;;;;;;;;;6.00;3.00;;;;;20.42;55.52;98052.37;110052;1266;19534;-37
2023/03/11 04:38:51;;;;;;;;;3.00;3.00;;;;;20.42;55.76;98052.70;110045;1266;18979;-37
2023/03/11 04:41:19;;;;;;;;;3.00;3.00;;;;;20.41;55.64;98053.67;110038;1266;20687;-40
2023/03/11 04:43:46;;;;;;;;;3.00;3.00;;;;;20.40;55.73;98056.38;110047;1266;19532;-38
2023/03/11 04:46:14;;;;;;;;;1.00;1.00;;;;;20.41;55.80;98055.56;110019;1254;20069;-40
2023/03/11 04:48:41;;;;;;;;;3.00;3.00;;;;;20.42;55.40;98058.90;110033;1266;22175;-38
2023/03/11 04:51:09;;;;;;;;;1.00;1.00;;;;;20.41;55.76;98061.45;110033;1266;19589;-41
2023/03/11 04:53:36;;;;;;;;;3.00;3.00;;;;;20.41;55.59;98068.08;110040;1266;21980;-38
2023/03/11 04:56:04;;;;;;;;;6.00;4.00;;;;;20.41;55.50;98074.45;110032;1266;20642;-38
2023/03/11 04:58:31;;;;;;;;;3.00;3.00;;;;;20.40;55.42;98080.48;110032;1266;18476;-38
2023/03/11 05:00:59;;;;;;;;;1.00;1.00;;;;;20.40;55.45;98079.81;110067;1266;20004;-38
2023/03/11 05:03:26;;;;;;;;;4.00;4.00;;;;;20.40;55.56;98088.30;110028;1250;22601;-39
2023/03/11 05:05:56;;;;;;;;;3.00;3.00;;;;;20.40;55.32;98090.70;110025;1266;18485;-38
2023/03/11 05:08:23;;;;;;;;;3.00;3.00;;;;;20.41;55.42;98094.36;110043;1266;18621;-38
2023/03/11 05:10:51;;;;;;;;;4.00;3.00;;;;;20.40;55.39;98091.95;110052;1254;21063;-39
2023/03/11 05:13:19;;;;;;;;;4.00;4.00;;;;;20.41;55.59;98098.33;110030;1250;22473;-39
2023/03/11 05:15:46;;;;;;;;;3.00;3.00;;;;;20.41;55.40;98095.55;110056;1259;19535;-39
2023/03/11 05:18:14;;;;;;;;;3.00;3.00;;;;;20.41;55.57;98102.90;110003;1251;22814;-39
2023/03/11 05:20:41;;;;;;;;;3.00;3.00;;;;;20.41;55.58;98108.55;110069;1266;18387;-39
2023/03/11 05:23:09;;;;;;;;;3.00;3.00;;;;;20.42;55.52;98112.05;110048;1266;18723;-39
2023/03/11 05:25:36;;;;;;;;;1.00;1.00;;;;;20.41;55.51;98115.84;110003;1266;22159;-39
2023/03/11 05:28:03;;;;;;;;;1.00;1.00;;;;;20.40;55.49;98117.63;109998;1266;18539;-38
2023/03/11 05:30:31;;;;;;;;;3.00;3.00;;;;;20.40;55.36;98120.66;110018;1266;22953;-39
2023/03/11 05:32:58;;;;;;;;;3.00;3.00;;;;;20.39;55.28;98126.02;110039;1250;21403;-40
2023/03/11 05:35:26;;;;;;;;;3.00;3.00;;;;;20.39;55.21;98122.89;110028;1250;19524;-37
2023/03/11 05:37:53;;;;;;;;;1.00;1.00;;;;;20.40;55.31;98123.21;110051;1266;20324;-40
2023/03/11 05:40:21;;;;;;;;;1.00;1.00;;;;;20.39;55.34;98126.52;110018;1266;22200;-39
2023/03/11 05:42:48;;;;;;;;;3.00;3.00;;;;;20.40;55.52;98134.10;110052;1266;19510;-37
2023/03/11 05:45:16;;;;;;;;;3.00;3.00;;;;;20.40;55.26;98139.70;110029;1253;20075;-38
2023/03/11 05:47:43;;;;;;;;;3.00;3.00;;;;;20.39;55.28;98148.13;110052;1251;20916;-37
2023/03/11 05:50:11;;;;;;;;;3.00;3.00;;;;;20.39;55.19;98152.56;110048;1254;19724;-39
2023/03/11 05:52:38;;;;;;;;;3.00;3.00;;;;;20.39;55.26;98155.07;110038;1266;18736;-38
2023/03/11 05:55:05;;;;;;;;;3.00;3.00;;;;;20.38;55.22;98155.80;110054;1254;20769;-38
2023/03/11 05:57:33;;;;;;;;;1.00;1.00;;;;;20.40;55.31;98156.73;110037;1266;19817;-38
2023/03/11 06:00:00;;;;;;;;;3.00;3.00;;;;;20.41;55.18;98156.48;110072;1266;20226;-38
2023/03/11 06:02:28;;;;;;;;;3.00;3.00;;;;;20.47;55.14;98163.73;110054;1250;22089;-38
2023/03/11 06:04:56;;;;;;;;;3.00;3.00;;;;;20.52;55.48;98171.58;110064;1266;19597;-38
2023/03/11 06:07:23;;;;;;;;;1.00;1.00;;;;;20.52;56.05;98181.31;109947;1266;20383;-38
2023/03/11 06:09:51;;;;;;;;;3.50;3.00;;;;;20.52;56.75;98192.16;110044;1266;19421;-38
2023/03/11 06:12:18;;;;;;;;;2.00;2.00;;;;;20.55;56.71;98198.73;110027;1266;21870;-38
2023/03/11 06:14:46;;;;;;;;;2.00;2.00;;;;;20.59;56.61;98207.42;110018;1266;22745;-38
2023/03/11 06:17:13;;;;;;;;;3.00;3.00;;;;;20.62;56.87;98208.73;110043;1266;20934;-38
2023/03/11 06:19:41;;;;;;;;;1.00;1.00;;;;;20.59;57.33;98213.31;110046;1266;19572;-37
2023/03/11 06:22:08;;;;;;;;;3.00;3.00;;;;;20.60;57.51;98213.17;109984;1266;18637;-38
2023/03/11 06:24:35;;;;;;;;;3.00;3.00;;;;;20.57;57.87;98222.83;109996;1266;22466;-38
2023/03/11 06:27:03;;;;;;;;;1.00;1.00;;;;;20.55;57.72;98222.67;109923;1266;19564;-38
2023/03/11 06:29:30;;;;;;;;;2.00;2.00;;;;;20.54;57.85;98233.98;109979;1266;18836;-38
2023/03/11 06:31:58;;;;;;;;;2.00;2.00;;;;;20.52;58.07;98236.79;110028;1266;19820;-40
2023/03/11 06:34:25;;;;;;;;;3.00;3.00;;;;;20.53;57.97;98246.70;110023;1253;19684;-39
2023/03/11 06:36:54;;;;;;;;;1.00;1.00;;;;;20.55;57.78;98254.23;110023;1260;23040;-39
2023/03/11 06:39:21;;;;;;;;;3.00;3.00;;;;;20.56;57.69;98260.20;109996;1266;19379;-39
2023/03/11 06:41:48;;;;;;;;;3.00;3.00;;;;;20.59;57.60;98264.19;109980;1266;18296;-39
2023/03/11 06:44:16;;;;;;;;;3.00;3.00;;;;;20.59;57.64;98265.55;110043;1266;18844;-37
2023/03/11 06:46:43;;;;;;;;;1.00;1.00;;;;;20.61;57.66;98266.95;110018;1266;19341;-38
2023/03/11 06:49:11;;;;;;;;;3.00;3.00;;;;;20.63;57.71;98277.09;110030;1254;19678;-38
2023/03/11 06:51:38;;;;;;;;;2.00;2.00;;;;;20.66;57.76;98284.23;110054;1250;20153;-38
2023/03/11 06:54:06;;;;;;;;;3.50;3.00;;;;;20.68;57.66;98296.59;110042;1266;20706;-39
2023/03/11 06:56:33;;;;;;;;;2.00;2.00;;;;;20.70;57.26;98300.99;110025;1266;22226;-39
2023/03/11 06:59:01;;;;;;;;;2.00;2.00;;;;;20.71;57.20;98306.89;110002;1266;19983;-39
2023/03/11 07:01:28;;;;;;;;;3.00;3.00;;;;;20.72;57.21;98320.89;110031;1250;22137;-38
2023/03/11 07:03:56;;;;;;;;;4.00;4.00;;;;;20.70;56.98;98324.77;110040;1266;20639;-39
2023/03/11 07:06:23;;;;;;;;;4.00;2.00;;;;;20.72;57.17;98337.02;110047;1266;20102;-38
2023/03/11 07:08:50;;;;;;;;;1.00;1.00;;;;;20.72;57.10;98342.67;110037;1266;19609;-39
2023/03/11 07:11:18;;;;;;;;;2.00;2.00;;;;;20.71;57.28;98348.67;110031;1266;19538;-38
2023/03/11 07:13:45;;;;;;;;;1.50;1.50;;;;;20.73;57.21;98354.67;110031;1259;20478;-39
2023/03/11 07:16:14;;;;;;;;;2.67;2.00;;;;;20.73;57.53;98364.79;110022;1266;19724;-38
2023/03/11 07:18:41;;;;;;;;;2.00;2.00;;;;;20.74;57.44;98371.14;110031;1266;18468;-37
2023/03/11 07:21:09;;;;;;;;;4.00;4.00;;;;;20.74;57.29;98380.98;110053;1266;18637;-37
2023/03/11 07:23:36;;;;;;;;;4.00;2.00;;;;;20.69;56.88;98388.43;109991;1250;21634;-38
2023/03/11 07:26:04;;;;;;;;;2.00;2.00;;;;;20.67;56.20;98396.76;110016;1266;18522;-40
2023/03/11 07:28:31;;;;;;;;;3.00;3.00;;;;;20.67;56.37;98401.66;110059;1266;21623;-38
2023/03/11 07:30:59;;;;;;;;;3.50;2.00;;;;;20.68;56.49;98417.09;110017;1266;19339;-38
2023/03/11 07:33:27;;;;;;;;;2.00;2.00;;;;;20.70;56.16;98420.63;110016;1253;20850;-38
2023/03/11 07:35:54;;;;;;;;;4.00;2.00;;;;;20.70;56.37;98426.23;110022;1254;20113;-38
2023/03/11 07:38:21;;;;;;;;;3.33;3.00;;;;;20.71;56.39;98430.63;109990;1266;19502;-37
2023/03/11 07:40:49;;;;;;;;;1.00;1.00;;;;;20.71;56.33;98436.55;110038;1266;18511;-38
2023/03/11 07:43:16;;;;;;;;;2.00;2.00;;;;;20.73;56.42;98440.67;109973;1252;20012;-37
2023/03/11 07:45:44;;;;;;;;;4.00;4.00;;;;;20.73;56.56;98447.87;109973;1266;20847;-38
2023/03/11 07:48:11;;;;;;;;;2.00;2.00;;;;;20.74;56.67;98459.20;109932;1250;19674;-38
2023/03/11 07:50:39;;;;;;;;;4.00;2.00;;;;;20.74;56.49;98462.64;109901;1266;18870;-41
2023/03/11 07:53:06;;;;;;;;;2.00;2.00;;;;;20.76;56.59;98467.48;109918;1266;20732;-39
2023/03/11 07:55:34;;;;;;;;;108.00;79.00;;;;;20.76;56.78;98475.19;109898;1250;20702;-39
2023/03/11 07:58:01;;;;;;;;;111.00;82.00;;;;;20.76;56.84;98476.64;109969;1266;20039;-40
2023/03/11 08:00:29;;;;;;;;;151.00;111.00;;;;;20.76;56.69;98485.79;110000;1266;19297;-40
2023/03/11 08:02:56;;;;;;;;;168.25;127.00;;;;;20.74;56.64;98495.60;110041;1266;19157;-40
2023/03/11 08:05:23;;;;;;;;;145.00;108.00;;;;;20.75;56.79;98502.85;110020;1260;20361;-40
2023/03/11 08:07:51;;;;;;;;;138.00;107.00;;;;;20.78;56.56;98508.70;109993;1266;20709;-40
2023/03/11 08:10:18;;;;;;;;;121.50;94.50;;;;;20.79;56.49;98513.84;110023;1252;20344;-39
2023/03/11 08:12:46;;;;;;;;;114.50;85.00;;;;;20.78;56.43;98518.74;109991;1266;22684;-38
2023/03/11 08:15:13;;;;;;;;;107.50;79.50;;;;;20.79;56.36;98532.14;110022;1266;19351;-40
2023/03/11 08:17:41;;;;;;;;;101.00;73.00;;;;;20.80;56.68;98531.58;110026;1250;18867;-39
2023/03/11 08:20:09;;;;;;;;;91.50;69.00;;;;;20.83;56.71;98542.82;110041;1266;22082;-42
2023/03/11 08:22:37;;;;;;;;;82.00;64.00;;;;;20.83;56.92;98548.31;110007;1251;20746;-37
2023/03/11 08:25:05;;;;;;;;;84.00;59.00;;;;;20.85;57.00;98550.87;109903;1253;164383;-39
2023/03/11 08:27:32;;;;;;;;;67.00;53.00;;;;;20.90;57.97;98555.20;110038;1260;18702;-39
2023/03/11 08:29:59;;;;;;;;;71.00;52.00;;;;;20.87;58.24;98559.01;110013;1266;20916;-38
2023/03/11 08:32:30;;;;;;;;;73.50;54.50;;;;;20.86;58.51;98566.89;110030;1254;20027;-39
2023/03/11 08:34:57;;;;;;;;;64.00;46.50;;;;;20.82;58.21;98574.69;110037;1266;22163;-39
2023/03/11 08:37:25;;;;;;;;;64.00;47.00;;;;;20.79;58.95;98588.43;110016;1250;22693;-39
2023/03/11 08:39:52;;;;;;;;;49.50;42.50;;;;;20.77;59.24;98592.90;110013;1250;18567;-40
2023/03/11 08:42:20;;;;;;;;;51.00;37.00;;;;;20.74;59.20;98602.19;109999;1254;20180;-40
2023/03/11 08:44:47;;;;;;;;;44.00;37.00;;;;;20.76;59.27;98611.13;110022;1266;22101;-39
2023/03/11 08:47:15;;;;;;;;;40.50;29.50;;;;;20.75;59.17;98616.04;110037;1254;19959;-41
2023/03/11 08:49:42;;;;;;;;;34.00;28.00;;;;;20.76;59.56;98620.85;110021;1266;22264;-40
2023/03/11 08:52:09;;;;;;;;;31.50;23.00;;;;;20.74;59.19;98627.19;110040;1266;19954;-41
2023/03/11 08:54:37;;;;;;;;;23.00;22.00;;;;;20.70;59.17;98629.88;110038;1266;19951;-37
2023/03/11 08:57:04;;;;;;;;;23.50;21.50;;;;;20.68;59.36;98637.10;110027;1266;18756;-38
2023/03/11 08:59:32;;;;;;;;;26.00;20.00;;;;;20.66;59.19;98641.85;110041;1266;20731;-38
2023/03/11 09:01:59;;;;;;;;;21.00;18.00;;;;;20.67;59.18;98649.38;109997;1266;19260;-38
2023/03/11 09:04:27;;;;;;;;;25.00;17.00;;;;;20.65;59.04;98653.60;109927;1266;20371;-38
2023/03/11 09:06:54;;;;;;;;;18.33;16.67;;;;;20.65;59.14;98660.72;109937;1266;19344;-40
2023/03/11 09:09:22;;;;;;;;;21.00;18.50;;;;;20.63;59.07;98662.40;110008;1258;18554;-38
2023/03/11 09:11:49;;;;;;;;;16.00;14.50;;;;;20.64;59.10;98673.52;110020;1266;19946;-38
2023/03/11 09:14:17;;;;;;;;;17.00;14.00;;;;;20.64;59.06;98676.98;109999;1266;19435;-38
2023/03/11 09:16:44;;;;;;;;;23.00;17.00;;;;;20.67;58.95;98682.91;110003;1254;20034;-39
2023/03/11 09:19:12;;;;;;;;;21.50;17.00;;;;;20.72;58.69;98691.02;110004;1250;20557;-40
2023/03/11 09:21:39;;;;;;;;;21.00;15.00;;;;;20.76;58.62;98699.08;110015;1250;19832;-39
2023/03/11 09:24:07;;;;;;;;;19.00;15.50;;;;;20.77;58.77;98702.35;110054;1266;18611;-40
2023/03/11 09:26:35;;;;;;;;;13.50;11.00;;;;;20.77;58.64;98710.91;110028;1250;22786;-40
2023/03/11 09:29:02;;;;;;;;;11.50;10.00;;;;;20.77;58.57;98723.65;110026;1259;23200;-40
2023/03/11 09:31:30;;;;;;;;;11.33;10.33;;;;;20.77;58.50;98732.28;110014;1266;18760;-40
2023/03/11 09:33:58;;;;;;;;;11.00;11.00;;;;;20.74;58.45;98735.65;110059;1266;18875;-40
2023/03/11 09:36:25;;;;;;;;;12.50;11.00;;;;;20.73;58.41;98745.77;110017;1253;20802;-38
2023/03/11 09:38:53;;;;;;;;;11.67;11.00;;;;;20.71;58.07;98752.90;110025;1266;18550;-38
2023/03/11 09:41:20;;;;;;;;;11.00;11.00;;;;;20.70;57.88;98761.38;109985;1250;22491;-38
2023/03/11 09:43:47;;;;;;;;;11.00;10.00;;;;;20.69;57.67;98768.95;110051;1266;19744;-38
2023/03/11 09:46:15;;;;;;;;;8.50;5.50;;;;;20.69;57.51;98771.59;110036;1250;20047;-38
2023/03/11 09:48:43;;;;;;;;;10.50;10.00;;;;;20.68;57.57;98778.09;109995;1266;23493;-38
2023/03/11 09:51:10;;;;;;;;;9.50;8.50;;;;;20.67;57.32;98784.39;110016;1266;19378;-39
2023/03/11 09:53:37;;;;;;;;;10.00;7.00;;;;;20.67;57.45;98790.45;109968;1266;18561;-38
2023/03/11 09:56:05;;;;;;;;;5.50;5.50;;;;;20.66;57.10;98791.60;110043;1260;18908;-38
2023/03/11 09:58:33;;;;;;;;;7.00;7.00;;;;;20.66;57.07;98801.52;109984;1250;22426;-39
2023/03/11 10:01:00;;;;;;;;;5.00;5.00;;;;;20.66;57.12;98806.64;110002;1250;18504;-39
2023/03/11 10:03:27;;;;;;;;;5.67;5.67;;;;;20.66;57.06;98812.33;110022;1266;18970;-37
2023/03/11 10:05:55;;;;;;;;;9.00;7.00;;;;;20.65;56.76;98815.69;110029;1260;19579;-39
2023/03/11 10:08:22;;;;;;;;;9.00;7.00;;;;;20.66;56.66;98831.39;109894;1250;21619;-38
2023/03/11 10:10:50;;;;;;;;;7.00;7.00;;;;;20.65;56.79;98833.98;110044;1254;20046;-38
2023/03/11 10:13:17;;;;;;;;;7.00;7.00;;;;;20.65;56.65;98838.43;110033;1250;22021;-38
2023/03/11 10:15:47;;;;;;;;;6.50;6.00;;;;;20.65;56.35;98841.88;110052;1266;19544;-39
2023/03/11 10:18:14;;;;;;;;;7.00;5.00;;;;;20.65;56.39;98846.60;110040;1266;20213;-39
2023/03/11 10:20:42;;;;;;;;;9.00;6.00;;;;;20.64;56.33;98849.24;110020;1250;20851;-39
2023/03/11 10:23:09;;;;;;;;;4.50;4.50;;;;;20.63;56.43;98854.61;110053;1266;18554;-41
2023/03/11 10:25:37;;;;;;;;;5.00;5.00;;;;;20.64;56.21;98856.91;110044;1266;20507;-39
2023/03/11 10:28:05;;;;;;;;;6.00;6.00;;;;;20.64;56.17;98868.50;109990;1250;22777;-41
2023/03/11 10:30:32;;;;;;;;;4.00;4.00;;;;;20.63;56.03;98876.00;110028;1266;20169;-39
2023/03/11 10:33:00;;;;;;;;;6.00;5.00;;;;;20.62;56.01;98877.96;110005;1266;20505;-39
2023/03/11 10:35:27;;;;;;;;;6.00;6.00;;;;;20.63;55.95;98888.77;110036;1250;20758;-39
2023/03/11 10:37:55;;;;;;;;;9.00;7.00;;;;;20.63;55.62;98890.61;110047;1254;20009;-39
2023/03/11 10:40:22;;;;;;;;;4.00;4.00;;;;;20.60;55.52;98893.75;110047;1266;18656;-39
2023/03/11 10:42:50;;;;;;;;;6.00;6.00;;;;;20.61;55.51;98904.41;110035;1252;20999;-39
2023/03/11 10:45:19;;;;;;;;;5.00;5.00;;;;;20.64;55.38;98905.82;110057;1250;19905;-39
2023/03/11 10:47:46;;;;;;;;;4.00;4.00;;;;;20.65;55.53;98913.47;110068;1266;18621;-38
2023/03/11 10:50:14;;;;;;;;;4.00;4.00;;;;;20.66;55.65;98914.52;110043;1266;19380;-38
2023/03/11 10:52:41;;;;;;;;;6.00;4.00;;;;;20.64;55.77;98922.40;109991;1266;19901;-39
2023/03/11 10:55:09;;;;;;;;;6.00;4.00;;;;;20.62;55.88;98927.89;110004;1266;19996;-39
2023/03/11 10:57:37;;;;;;;;;3.33;3.33;;;;;20.61;55.97;98929.82;110056;1254;20805;-38
2023/03/11 11:00:11;;;;;;;;;4.00;3.00;;;;;20.61;55.96;98941.72;110033;1266;18452;-38
2023/03/11 11:02:39;;;;;;;;;4.00;4.00;;;;;20.59;55.97;98938.89;110036;1250;21477;-38
2023/03/11 11:05:06;;;;;;;;;6.50;5.00;;;;;20.59;56.10;98946.35;110051;1260;19598;-39
2023/03/11 11:07:34;;;;;;;;;7.00;4.00;;;;;20.59;56.08;98952.16;110048;1250;22806;-39
2023/03/11 11:10:01;;;;;;;;;4.00;4.00;;;;;20.58;55.88;98957.02;109983;1254;24520;-38
2023/03/11 11:12:28;;;;;;;;;3.00;3.00;;;;;20.58;55.89;98961.22;110033;1266;21487;-41
2023/03/11 11:14:56;;;;;;;;;3.00;3.00;;;;;20.58;55.73;98964.48;110055;1266;19628;-39
2023/03/11 11:17:23;;;;;;;;;4.00;4.00;;;;;20.58;55.73;98967.15;110034;1250;18827;-39
2023/03/11 11:19:51;;;;;;;;;4.00;4.00;;;;;20.58;55.80;98972.60;110014;1266;22837;-39
2023/03/11 11:22:18;;;;;;;;;;;;;;;20.58;55.77;98977.38;110019;1266;18721;-40